Aérodrome :
LOGIN :

S'inscrire | Disclaimer

   EN    FR    IT 

 










Légende :    VFR   VFR Marginal   IFR   IFR Intensif   IFR Très Intensif
Visi : 
Plafond : 
>= 8 km
>= 3000ft
5 à 8 km
1000 à 3000 ft
1500m à 5 km
500 à 1000 ft
800 à 1500m
200 à 500 ft
< 800m
< 200 ft
Symboles :   Orages  Brouillard  Fortes neiges  Fortes précipitations  Vent > 20 kt
SIGMETs :   Divers  Orages  Givrage  Turbulence  Onde Orograph.  Cendres Volcan.






- Altitude de l'aérodrome : 526 ft
- Code IATA : LTN


EGGW - London Luton

DERNIER METAR :
  • 271450Z AUTO 31018KT 9999 BKN035 06/00 Q1003

METARs EXPIRÉS :
  • 271420Z AUTO 31020G31KT 9999 BKN034 06/M00 Q1002
  • 271350Z AUTO 32021KT 9999 BKN029 BKN036 05/M01 Q1002
  • 271320Z AUTO 32019KT 9999 SCT035 BKN044 06/01 Q1001
  • 271250Z AUTO 32019KT 9999 BKN024 BKN033 05/01 Q1000
  • 271220Z AUTO 32016KT 9999 FEW017 SCT021 BKN025 04/02 Q1000

TAF TAF EGGW
Valide du 27 à 12h jusqu'au 28 à 12h UTC


271107Z 2712/2812 31013KT 9999 BKN002
BECMG 2712/2715 SCT025
TEMPO 2712/2718 32017G27KT
BECMG 2718/2721 24006KT
BECMG 2807/2810 16012KT 8000 -RA BKN010
TEMPO 2808/2812 4000 RA BKN006
PROB30
TEMPO 2810/2812 17015G25KT
ATIS : +44 1582 395 204



MET'MAP, la Météo Aéronautique d'un coup d'oeil ! - Copyright ORBIFLY Décembre 2007 - Disclaimer

ORBIFLY MET'MAP TEAM :

Programmation & Développement : Alexandra Zaïnal
Sur une idée originale de : Baudouin d'Aumeries
Assistance à la programmation : Marc-Olivier Méhu
Soutien technique & logistique : Manuel Goepfert

Contact : metmap@orbifly.com




SOURCES & CREDITS :

   NOAA